Time;durP1;ratioP1;P1;durP2;ratioP2;P2;SDS_P1;SDS_P2;PMS_P1;PMS_P2;Temp;Humidity;BMP_temperature;BMP_pressure;BME280_temperature;BME280_humidity;BME280_pressure;Samples;Min_cycle;Max_cycle;Signal;HPM_P1;HPM_P2
2024/04/06 00:00:03;;;;;;;3.28;2.00;;;;;;;;;;5037321;28;20075;-60
2024/04/06 00:02:28;;;;;;;3.92;2.00;;;;;;;;;;5038371;28;20471;-59
2024/04/06 00:04:56;;;;;;;3.30;2.20;;;;;;;;;;5028709;28;20199;-60
2024/04/06 00:07:22;;;;;;;4.90;1.83;;;;;;;;;;5043690;28;20536;-59
2024/04/06 00:09:47;;;;;;;4.30;2.38;;;;;;;;;;5040048;28;20046;-59
2024/04/06 00:12:13;;;;;;;3.30;1.80;;;;;;;;;;5026529;28;20025;-60
2024/04/06 00:14:38;;;;;;;3.58;2.13;;;;;;;;;;5042637;28;20049;-59
2024/04/06 00:17:03;;;;;;;3.42;1.95;;;;;;;;;;5030306;28;20042;-59
2024/04/06 00:19:29;;;;;;;3.58;1.85;;;;;;;;;;5041840;28;20041;-59
2024/04/06 00:21:55;;;;;;;4.05;2.15;;;;;;;;;;5033485;28;20036;-59
2024/04/06 00:24:20;;;;;;;3.67;2.05;;;;;;;;;;5037608;28;20064;-59
2024/04/06 00:26:46;;;;;;;3.85;2.05;;;;;;;;;;5030430;28;20110;-60
2024/04/06 00:29:11;;;;;;;4.20;1.90;;;;;;;;;;5045190;28;20083;-59
2024/04/06 00:31:36;;;;;;;3.17;1.95;;;;;;;;;;5042568;28;20029;-60
2024/04/06 00:34:02;;;;;;;4.22;1.85;;;;;;;;;;5038283;28;20041;-59
2024/04/06 00:36:46;;;;;;;4.28;2.30;;;;;;;;;;5033567;28;20053;-60
2024/04/06 00:39:11;;;;;;;3.28;2.22;;;;;;;;;;5029068;28;20025;-60
2024/04/06 00:41:37;;;;;;;3.92;1.85;;;;;;;;;;5027397;28;20037;-59
2024/04/06 00:44:02;;;;;;;3.33;1.90;;;;;;;;;;5026790;28;20053;-60
2024/04/06 00:46:27;;;;;;;3.90;1.67;;;;;;;;;;5040351;28;20131;-59
2024/04/06 00:48:52;;;;;;;2.72;1.77;;;;;;;;;;5027079;28;20044;-60
2024/04/06 00:51:18;;;;;;;4.20;1.98;;;;;;;;;;5027694;28;20033;-59
2024/04/06 00:53:44;;;;;;;4.25;1.70;;;;;;;;;;5036702;28;20037;-60
2024/04/06 00:56:09;;;;;;;3.42;1.73;;;;;;;;;;5032888;28;20045;-59
2024/04/06 00:58:35;;;;;;;2.80;1.90;;;;;;;;;;5035894;28;20039;-60
2024/04/06 01:01:00;;;;;;;3.75;1.92;;;;;;;;;;5045878;28;20072;-60
2024/04/06 01:03:26;;;;;;;4.07;2.00;;;;;;;;;;5029419;28;20083;-59
2024/04/06 01:05:51;;;;;;;4.15;1.85;;;;;;;;;;5030182;28;20115;-60
2024/04/06 01:08:16;;;;;;;5.10;2.00;;;;;;;;;;5013670;28;20049;-60
2024/04/06 01:10:42;;;;;;;3.22;2.00;;;;;;;;;;5038678;28;20067;-60
2024/04/06 01:13:07;;;;;;;4.50;1.85;;;;;;;;;;5039602;28;20141;-60
2024/04/06 01:15:34;;;;;;;3.13;1.80;;;;;;;;;;5026896;28;20049;-60
2024/04/06 01:18:00;;;;;;;3.25;2.28;;;;;;;;;;5030084;28;20048;-61
2024/04/06 01:20:25;;;;;;;3.30;1.80;;;;;;;;;;5034478;28;20045;-59
2024/04/06 01:22:51;;;;;;;3.17;2.00;;;;;;;;;;5022743;28;20095;-59
2024/04/06 01:25:16;;;;;;;3.13;2.00;;;;;;;;;;5020643;28;20030;-60
2024/04/06 01:27:41;;;;;;;2.88;1.83;;;;;;;;;;5009892;28;20092;-59
2024/04/06 01:30:07;;;;;;;4.07;1.73;;;;;;;;;;5031277;28;20152;-59
2024/04/06 01:32:32;;;;;;;3.33;1.70;;;;;;;;;;5040120;28;20106;-59
2024/04/06 01:34:59;;;;;;;3.53;1.80;;;;;;;;;;5041131;28;20033;-59
2024/04/06 01:37:25;;;;;;;2.47;1.83;;;;;;;;;;5026697;28;20539;-60
2024/04/06 01:39:50;;;;;;;4.28;2.25;;;;;;;;;;5024310;28;20128;-59
2024/04/06 01:42:15;;;;;;;3.65;1.90;;;;;;;;;;5037489;28;20048;-60
2024/04/06 01:44:40;;;;;;;3.00;1.83;;;;;;;;;;5033820;28;20163;-59
2024/04/06 01:47:06;;;;;;;3.90;2.03;;;;;;;;;;5032801;28;20037;-59
2024/04/06 01:49:31;;;;;;;4.07;2.03;;;;;;;;;;5031470;28;20044;-60
2024/04/06 01:51:57;;;;;;;4.20;1.95;;;;;;;;;;5016107;28;20017;-59
2024/04/06 01:54:22;;;;;;;4.97;2.10;;;;;;;;;;5033473;28;20025;-59
2024/04/06 01:56:47;;;;;;;4.75;2.20;;;;;;;;;;5030499;28;20125;-61
2024/04/06 01:59:12;;;;;;;2.65;1.83;;;;;;;;;;5015024;28;20056;-60
2024/04/06 02:01:38;;;;;;;2.90;1.85;;;;;;;;;;5030373;28;20047;-60
2024/04/06 02:04:03;;;;;;;3.95;2.08;;;;;;;;;;5032481;28;20021;-60
2024/04/06 02:06:28;;;;;;;3.58;1.90;;;;;;;;;;5030515;28;20052;-59
2024/04/06 02:08:54;;;;;;;2.63;1.60;;;;;;;;;;5034315;28;20025;-60
2024/04/06 02:11:19;;;;;;;3.63;2.20;;;;;;;;;;5029023;28;20045;-61
2024/04/06 02:13:44;;;;;;;5.28;2.20;;;;;;;;;;5035793;28;20021;-60
2024/04/06 02:16:10;;;;;;;3.42;1.90;;;;;;;;;;5049878;28;20049;-60
2024/04/06 02:18:35;;;;;;;4.00;2.33;;;;;;;;;;5029155;28;20036;-60
2024/04/06 02:21:00;;;;;;;3.25;2.20;;;;;;;;;;5040532;28;20478;-60
2024/04/06 02:23:25;;;;;;;2.55;1.95;;;;;;;;;;5029922;28;20392;-61
2024/04/06 02:25:52;;;;;;;5.30;2.50;;;;;;;;;;5045874;28;20475;-59
2024/04/06 02:28:17;;;;;;;3.33;2.10;;;;;;;;;;5032174;28;20381;-59
2024/04/06 02:30:42;;;;;;;4.10;2.67;;;;;;;;;;5033142;28;20029;-59
2024/04/06 02:33:08;;;;;;;4.50;2.50;;;;;;;;;;5031487;28;20032;-59
2024/04/06 02:35:33;;;;;;;5.60;2.72;;;;;;;;;;5034649;28;20033;-60
2024/04/06 02:37:58;;;;;;;3.97;2.30;;;;;;;;;;5037459;28;20023;-59
2024/04/06 02:40:24;;;;;;;4.10;2.50;;;;;;;;;;5029862;28;20028;-61
2024/04/06 02:42:49;;;;;;;4.82;2.60;;;;;;;;;;5028900;28;20026;-62
2024/04/06 02:45:14;;;;;;;4.50;2.70;;;;;;;;;;5041539;28;20155;-59
2024/04/06 02:47:39;;;;;;;5.05;2.67;;;;;;;;;;5035856;28;20120;-63
2024/04/06 02:50:05;;;;;;;4.85;2.63;;;;;;;;;;5032306;28;20091;-61
2024/04/06 02:52:30;;;;;;;5.50;2.85;;;;;;;;;;5028546;28;20057;-62
2024/04/06 02:54:56;;;;;;;4.00;2.58;;;;;;;;;;5026828;28;20037;-59
2024/04/06 02:57:21;;;;;;;5.68;3.08;;;;;;;;;;5027504;28;20040;-58
2024/04/06 02:59:47;;;;;;;5.38;2.97;;;;;;;;;;5030611;28;20041;-59
2024/04/06 03:02:13;;;;;;;4.25;2.72;;;;;;;;;;5042335;28;20021;-60
2024/04/06 03:04:39;;;;;;;4.68;2.50;;;;;;;;;;5034710;28;20396;-60
2024/04/06 03:07:04;;;;;;;5.50;2.83;;;;;;;;;;5030543;28;20044;-59
2024/04/06 03:09:31;;;;;;;4.82;2.53;;;;;;;;;;5037332;28;20108;-61
2024/04/06 03:11:56;;;;;;;4.82;2.80;;;;;;;;;;5036359;28;20028;-62
2024/04/06 03:14:21;;;;;;;4.25;2.55;;;;;;;;;;5042850;28;20017;-61
2024/04/06 03:16:47;;;;;;;5.63;3.20;;;;;;;;;;5033306;28;20025;-61
2024/04/06 03:19:12;;;;;;;4.55;2.50;;;;;;;;;;5038831;28;20029;-61
2024/04/06 03:21:37;;;;;;;3.40;2.22;;;;;;;;;;5036931;28;22302;-60
2024/04/06 03:24:03;;;;;;;4.43;2.47;;;;;;;;;;5040457;28;20848;-60
2024/04/06 03:26:28;;;;;;;5.13;2.80;;;;;;;;;;5031541;28;20110;-62
2024/04/06 03:28:53;;;;;;;4.25;2.85;;;;;;;;;;5029890;28;20087;-62
2024/04/06 03:31:19;;;;;;;3.47;2.35;;;;;;;;;;5033390;28;20033;-60
2024/04/06 03:33:44;;;;;;;5.38;2.58;;;;;;;;;;5036157;28;20030;-60
2024/04/06 03:36:10;;;;;;;4.35;2.50;;;;;;;;;;5037238;28;20396;-60
2024/04/06 03:38:35;;;;;;;5.00;2.75;;;;;;;;;;5041138;28;20951;-60
2024/04/06 03:41:00;;;;;;;4.13;2.60;;;;;;;;;;5031417;28;20160;-60
2024/04/06 03:43:26;;;;;;;3.90;2.40;;;;;;;;;;5040343;28;20107;-61
2024/04/06 03:45:51;;;;;;;3.58;2.45;;;;;;;;;;5039098;28;20336;-62
2024/04/06 03:48:16;;;;;;;3.20;2.10;;;;;;;;;;5039947;28;20040;-62
2024/04/06 03:50:42;;;;;;;5.20;2.40;;;;;;;;;;5030017;28;20033;-61
2024/04/06 03:53:07;;;;;;;4.82;2.50;;;;;;;;;;5033121;28;20459;-61
2024/04/06 03:55:32;;;;;;;3.28;2.30;;;;;;;;;;5040275;28;20140;-61
2024/04/06 03:57:58;;;;;;;4.65;2.80;;;;;;;;;;5034836;28;20168;-61
2024/04/06 04:00:23;;;;;;;3.85;2.30;;;;;;;;;;5034654;28;20040;-60
2024/04/06 04:02:48;;;;;;;3.47;2.28;;;;;;;;;;5035339;28;20120;-64
2024/04/06 04:05:14;;;;;;;4.53;2.80;;;;;;;;;;5040863;28;20029;-60
2024/04/06 04:07:39;;;;;;;4.78;2.83;;;;;;;;;;5042117;28;20396;-63
2024/04/06 04:10:05;;;;;;;3.88;2.60;;;;;;;;;;5034656;28;20025;-62
2024/04/06 04:12:31;;;;;;;3.88;2.80;;;;;;;;;;5033418;28;20506;-60
2024/04/06 04:14:57;;;;;;;3.80;2.30;;;;;;;;;;5033279;28;20657;-64
2024/04/06 04:17:22;;;;;;;4.95;2.42;;;;;;;;;;5033940;28;20037;-61
2024/04/06 04:19:48;;;;;;;3.72;2.72;;;;;;;;;;5033154;28;20087;-62
2024/04/06 04:22:13;;;;;;;3.47;2.28;;;;;;;;;;5027781;28;20037;-58
2024/04/06 04:24:39;;;;;;;3.80;2.28;;;;;;;;;;5030687;28;20120;-62
2024/04/06 04:27:04;;;;;;;4.68;2.78;;;;;;;;;;5027819;28;20041;-60
2024/04/06 04:29:29;;;;;;;4.00;2.40;;;;;;;;;;5031008;28;20037;-62
2024/04/06 04:31:55;;;;;;;4.20;2.67;;;;;;;;;;5034401;28;20037;-62
2024/04/06 04:34:20;;;;;;;3.95;2.70;;;;;;;;;;5038882;28;20065;-62
2024/04/06 04:36:47;;;;;;;4.97;2.63;;;;;;;;;;5036808;28;20143;-60
2024/04/06 04:39:12;;;;;;;3.83;2.20;;;;;;;;;;5036951;28;20140;-58
2024/04/06 04:41:37;;;;;;;4.05;2.30;;;;;;;;;;5030800;28;20041;-64
2024/04/06 04:44:03;;;;;;;6.70;2.78;;;;;;;;;;5031154;28;20499;-60
2024/04/06 04:46:28;;;;;;;4.57;2.63;;;;;;;;;;5031249;28;20200;-62
2024/04/06 04:48:56;;;;;;;4.82;2.33;;;;;;;;;;5030298;28;20033;-62
2024/04/06 04:51:21;;;;;;;4.80;2.40;;;;;;;;;;5039581;28;20623;-61
2024/04/06 04:53:47;;;;;;;5.80;2.95;;;;;;;;;;5028061;28;20034;-61
2024/04/06 04:56:12;;;;;;;3.67;2.25;;;;;;;;;;5026489;28;20052;-62
2024/04/06 04:58:37;;;;;;;4.32;2.35;;;;;;;;;;5029856;28;20055;-62
2024/04/06 05:01:03;;;;;;;3.67;2.33;;;;;;;;;;5039024;28;20403;-61
2024/04/06 05:03:28;;;;;;;4.38;2.45;;;;;;;;;;5033723;28;20456;-60
2024/04/06 05:05:53;;;;;;;5.20;2.67;;;;;;;;;;5034345;28;20050;-60
2024/04/06 05:08:19;;;;;;;5.95;2.58;;;;;;;;;;5033579;28;20025;-61
2024/04/06 05:10:44;;;;;;;6.00;2.47;;;;;;;;;;5029617;28;20053;-61
2024/04/06 05:13:09;;;;;;;4.78;2.75;;;;;;;;;;5013965;28;20174;-62
2024/04/06 05:15:35;;;;;;;4.32;2.45;;;;;;;;;;5031372;28;20045;-62
2024/04/06 05:18:00;;;;;;;4.43;2.47;;;;;;;;;;5035619;28;20029;-62
2024/04/06 05:20:25;;;;;;;5.35;2.50;;;;;;;;;;5042565;28;20506;-61
2024/04/06 05:22:51;;;;;;;4.07;2.22;;;;;;;;;;5034188;28;20044;-61
2024/04/06 05:25:16;;;;;;;3.85;2.40;;;;;;;;;;5035608;28;20124;-61
2024/04/06 05:27:41;;;;;;;5.22;2.20;;;;;;;;;;5036591;28;20047;-61
2024/04/06 05:30:07;;;;;;;3.75;2.33;;;;;;;;;;5032025;28;20033;-61
2024/04/06 05:32:32;;;;;;;5.93;2.55;;;;;;;;;;5038685;28;20048;-61
2024/04/06 05:34:57;;;;;;;4.07;2.83;;;;;;;;;;5025980;28;20038;-61
2024/04/06 05:37:23;;;;;;;3.72;2.30;;;;;;;;;;5020430;28;20503;-61
2024/04/06 05:39:48;;;;;;;4.60;2.38;;;;;;;;;;5039798;28;20158;-60
2024/04/06 05:42:13;;;;;;;4.00;2.40;;;;;;;;;;5032451;28;20032;-60
2024/04/06 05:44:38;;;;;;;4.05;2.58;;;;;;;;;;5028617;28;20037;-61
2024/04/06 05:47:04;;;;;;;7.80;2.63;;;;;;;;;;5032776;28;20095;-63
2024/04/06 05:49:30;;;;;;;5.38;2.58;;;;;;;;;;5036603;28;20415;-60
2024/04/06 05:51:55;;;;;;;6.28;2.80;;;;;;;;;;5041841;28;20573;-64
2024/04/06 05:54:20;;;;;;;5.10;2.92;;;;;;;;;;5033052;28;20030;-60
2024/04/06 05:56:46;;;;;;;4.55;2.53;;;;;;;;;;5032060;28;20029;-59
2024/04/06 05:59:11;;;;;;;8.93;3.42;;;;;;;;;;5038129;28;20468;-62
2024/04/06 06:01:36;;;;;;;5.65;2.50;;;;;;;;;;5034612;28;20052;-61
2024/04/06 06:04:02;;;;;;;5.05;2.53;;;;;;;;;;5041071;28;20029;-59
2024/04/06 06:06:27;;;;;;;4.65;2.30;;;;;;;;;;5032985;28;20508;-59
2024/04/06 06:08:53;;;;;;;5.40;2.42;;;;;;;;;;5042869;28;20503;-58
2024/04/06 06:11:18;;;;;;;5.25;3.05;;;;;;;;;;5030427;28;20349;-59
2024/04/06 06:13:43;;;;;;;5.38;2.60;;;;;;;;;;5030675;28;20101;-58
2024/04/06 06:16:09;;;;;;;6.88;3.20;;;;;;;;;;5031579;28;20498;-61
2024/04/06 06:18:34;;;;;;;6.30;2.72;;;;;;;;;;5040250;28;20072;-59
2024/04/06 06:21:03;;;;;;;5.50;2.65;;;;;;;;;;5042733;28;20029;-60
2024/04/06 06:23:28;;;;;;;7.07;2.60;;;;;;;;;;5026710;28;20061;-59
2024/04/06 06:25:54;;;;;;;6.55;2.80;;;;;;;;;;5037109;28;20072;-59
2024/04/06 06:28:19;;;;;;;4.85;2.70;;;;;;;;;;5035070;28;20399;-62
2024/04/06 06:30:45;;;;;;;5.93;2.80;;;;;;;;;;5043872;28;20116;-61
2024/04/06 06:33:11;;;;;;;7.00;2.60;;;;;;;;;;5034283;28;20033;-59
2024/04/06 06:35:36;;;;;;;5.97;2.80;;;;;;;;;;5029556;28;20073;-60
2024/04/06 06:38:02;;;;;;;5.38;2.97;;;;;;;;;;5039392;28;20444;-59
2024/04/06 06:40:27;;;;;;;7.55;2.50;;;;;;;;;;5032116;28;20108;-63
2024/04/06 06:42:53;;;;;;;5.95;2.80;;;;;;;;;;5034756;28;20487;-59
2024/04/06 06:45:19;;;;;;;5.25;2.88;;;;;;;;;;5041954;28;20533;-60
2024/04/06 06:47:44;;;;;;;5.25;2.53;;;;;;;;;;5038276;28;20468;-60
2024/04/06 06:50:10;;;;;;;5.63;2.65;;;;;;;;;;5029732;28;20072;-60
2024/04/06 06:52:36;;;;;;;5.32;2.63;;;;;;;;;;5028785;28;20044;-60
2024/04/06 06:55:02;;;;;;;5.00;2.60;;;;;;;;;;5029583;28;20049;-61
2024/04/06 06:57:27;;;;;;;3.83;2.58;;;;;;;;;;5021680;28;20040;-59
2024/04/06 06:59:52;;;;;;;6.28;2.55;;;;;;;;;;5031648;28;20045;-60
2024/04/06 07:02:18;;;;;;;5.22;2.65;;;;;;;;;;5034540;28;20040;-59
2024/04/06 07:04:44;;;;;;;4.93;2.80;;;;;;;;;;5040395;28;20460;-60
2024/04/06 07:07:10;;;;;;;3.92;2.53;;;;;;;;;;5046038;28;20033;-59
2024/04/06 07:09:35;;;;;;;5.05;2.38;;;;;;;;;;5034386;28;20110;-60
2024/04/06 07:12:00;;;;;;;4.10;2.30;;;;;;;;;;5036727;28;20033;-60
2024/04/06 07:14:27;;;;;;;4.22;2.50;;;;;;;;;;5031868;28;20041;-59
2024/04/06 07:16:52;;;;;;;5.30;2.47;;;;;;;;;;5028428;28;20045;-60
2024/04/06 07:19:17;;;;;;;6.90;2.10;;;;;;;;;;5027618;28;20648;-59
2024/04/06 07:21:43;;;;;;;5.78;2.38;;;;;;;;;;5029127;28;20043;-60
2024/04/06 07:24:09;;;;;;;5.05;2.47;;;;;;;;;;5027313;28;20075;-60
2024/04/06 07:26:34;;;;;;;4.63;2.50;;;;;;;;;;5025980;28;20077;-59
2024/04/06 07:28:59;;;;;;;4.30;2.30;;;;;;;;;;5032103;28;20048;-59
2024/04/06 07:31:25;;;;;;;5.13;2.20;;;;;;;;;;5042121;28;20430;-57
2024/04/06 07:33:50;;;;;;;4.80;2.38;;;;;;;;;;5031021;28;20447;-58
2024/04/06 07:36:15;;;;;;;5.95;2.45;;;;;;;;;;5038399;28;20141;-57
2024/04/06 07:38:41;;;;;;;5.70;2.65;;;;;;;;;;5039033;28;20028;-56
2024/04/06 07:41:06;;;;;;;6.85;2.80;;;;;;;;;;5029410;28;20107;-58
2024/04/06 07:43:31;;;;;;;3.65;2.40;;;;;;;;;;5033447;28;20033;-60
2024/04/06 07:45:57;;;;;;;4.68;2.40;;;;;;;;;;5027873;28;20068;-59
2024/04/06 07:48:22;;;;;;;4.68;2.58;;;;;;;;;;5035317;28;20069;-59
2024/04/06 07:50:48;;;;;;;4.20;2.38;;;;;;;;;;5021431;28;20072;-59
2024/04/06 07:53:13;;;;;;;7.53;2.55;;;;;;;;;;5032708;28;20043;-58
2024/04/06 07:55:38;;;;;;;5.35;2.70;;;;;;;;;;5031951;28;20103;-59
2024/04/06 07:58:04;;;;;;;5.07;2.83;;;;;;;;;;5039163;28;20124;-59
2024/04/06 08:00:29;;;;;;;5.88;2.90;;;;;;;;;;5031346;28;20049;-60
2024/04/06 08:02:54;;;;;;;6.07;2.80;;;;;;;;;;5036024;28;20025;-58
2024/04/06 08:05:20;;;;;;;6.45;2.80;;;;;;;;;;5043754;28;20095;-59
2024/04/06 08:07:45;;;;;;;5.78;2.78;;;;;;;;;;5030820;28;20072;-60
2024/04/06 08:10:17;;;;;;;6.35;3.00;;;;;;;;;;5027078;28;20048;-60
2024/04/06 08:12:43;;;;;;;7.82;2.97;;;;;;;;;;5031350;28;20037;-59
2024/04/06 08:15:08;;;;;;;7.03;2.90;;;;;;;;;;5033711;28;20052;-60
2024/04/06 08:17:34;;;;;;;5.18;2.63;;;;;;;;;;5035151;28;20029;-59
2024/04/06 08:20:00;;;;;;;5.85;3.20;;;;;;;;;;5028334;28;20065;-60
2024/04/06 08:22:25;;;;;;;5.60;2.95;;;;;;;;;;5027466;28;20038;-59
2024/04/06 08:24:50;;;;;;;6.15;3.00;;;;;;;;;;5030328;28;20322;-60
2024/04/06 08:27:15;;;;;;;5.90;2.88;;;;;;;;;;5030049;28;20516;-60
2024/04/06 08:29:41;;;;;;;8.77;2.70;;;;;;;;;;5029096;28;20190;-58
2024/04/06 08:32:06;;;;;;;5.95;2.90;;;;;;;;;;5027436;28;20049;-62
2024/04/06 08:34:31;;;;;;;5.75;2.83;;;;;;;;;;5028149;28;20026;-59
2024/04/06 08:36:57;;;;;;;7.43;2.70;;;;;;;;;;5027872;28;20048;-59
2024/04/06 08:39:23;;;;;;;7.72;2.60;;;;;;;;;;5032824;28;20033;-59
2024/04/06 08:41:49;;;;;;;8.25;5.80;;;;;;;;;;5038208;28;20033;-60
2024/04/06 08:44:16;;;;;;;11.30;8.93;;;;;;;;;;5023523;28;20025;-59
2024/04/06 08:46:41;;;;;;;8.43;6.70;;;;;;;;;;5020933;28;20874;-65
2024/04/06 08:49:09;;;;;;;8.23;5.95;;;;;;;;;;5039323;28;20025;-62
2024/04/06 08:51:34;;;;;;;7.13;5.72;;;;;;;;;;5017756;28;20484;-59
2024/04/06 08:53:59;;;;;;;7.35;5.15;;;;;;;;;;5031800;28;20061;-60
2024/04/06 08:56:25;;;;;;;7.78;4.80;;;;;;;;;;5033933;28;20037;-59
2024/04/06 08:58:50;;;;;;;8.20;4.70;;;;;;;;;;5031686;28;20079;-60
2024/04/06 09:01:15;;;;;;;6.80;4.63;;;;;;;;;;5016425;28;20453;-58
2024/04/06 09:03:41;;;;;;;9.30;4.88;;;;;;;;;;5032760;28;20037;-58
2024/04/06 09:06:16;;;;;;;8.93;4.65;;;;;;;;;;5041579;28;20071;-60
2024/04/06 09:08:41;;;;;;;7.75;3.97;;;;;;;;;;5038010;28;20033;-59
2024/04/06 09:11:11;;;;;;;7.18;3.95;;;;;;;;;;5016227;28;20045;-65
2024/04/06 09:13:37;;;;;;;6.25;4.07;;;;;;;;;;5035811;28;20029;-59
2024/04/06 09:16:03;;;;;;;7.15;3.92;;;;;;;;;;5041173;28;20055;-61
2024/04/06 09:18:28;;;;;;;5.97;3.75;;;;;;;;;;5036315;28;20495;-59
2024/04/06 09:20:53;;;;;;;7.28;3.78;;;;;;;;;;5028841;28;20103;-59
2024/04/06 09:23:19;;;;;;;7.47;3.90;;;;;;;;;;5032467;28;20541;-65
2024/04/06 09:25:44;;;;;;;6.07;3.90;;;;;;;;;;5037436;28;20043;-63
2024/04/06 09:28:09;;;;;;;5.03;3.60;;;;;;;;;;5034989;28;20037;-60
2024/04/06 09:30:38;;;;;;;7.65;3.72;;;;;;;;;;5030648;28;20527;-62
2024/04/06 09:33:03;;;;;;;6.93;3.45;;;;;;;;;;5038427;28;20040;-59
2024/04/06 09:35:29;;;;;;;6.25;3.40;;;;;;;;;;5017868;28;20135;-61
2024/04/06 09:37:54;;;;;;;5.43;2.97;;;;;;;;;;5039161;28;20029;-61
2024/04/06 09:40:20;;;;;;;5.43;2.80;;;;;;;;;;5036088;28;20040;-60
2024/04/06 09:42:45;;;;;;;5.28;3.13;;;;;;;;;;5043498;28;20026;-58
2024/04/06 09:45:10;;;;;;;5.80;2.67;;;;;;;;;;5019259;28;20033;-60
2024/04/06 09:47:36;;;;;;;4.63;2.80;;;;;;;;;;5033560;28;20133;-59
2024/04/06 09:50:02;;;;;;;5.40;2.90;;;;;;;;;;5037279;28;20030;-62
2024/04/06 09:52:28;;;;;;;4.78;2.70;;;;;;;;;;5027815;28;20056;-59
2024/04/06 09:54:53;;;;;;;5.88;3.03;;;;;;;;;;5026427;28;20160;-59
2024/04/06 09:57:19;;;;;;;4.80;2.40;;;;;;;;;;5017669;28;20034;-59
2024/04/06 09:59:45;;;;;;;5.93;2.47;;;;;;;;;;5015835;28;20033;-60
2024/04/06 10:02:10;;;;;;;7.55;2.65;;;;;;;;;;5026804;28;20034;-61
2024/04/06 10:04:36;;;;;;;6.30;2.63;;;;;;;;;;5011400;28;20519;-61
2024/04/06 10:07:03;;;;;;;4.65;2.55;;;;;;;;;;5036501;28;20030;-60
2024/04/06 10:09:32;;;;;;;4.78;2.20;;;;;;;;;;5036412;28;20049;-61
2024/04/06 10:12:01;;;;;;;4.10;2.00;;;;;;;;;;5034495;28;20033;-60
2024/04/06 10:14:29;;;;;;;3.97;1.95;;;;;;;;;;5037734;28;20037;-61
2024/04/06 10:17:08;;;;;;;4.47;2.25;;;;;;;;;;5047326;28;20112;-61
2024/04/06 10:19:33;;;;;;;4.72;2.08;;;;;;;;;;5037327;28;20132;-60
2024/04/06 10:22:02;;;;;;;3.75;2.40;;;;;;;;;;5019704;28;20037;-59
2024/04/06 10:24:28;;;;;;;3.55;1.80;;;;;;;;;;5020567;28;20018;-61
2024/04/06 10:26:55;;;;;;;4.35;1.50;;;;;;;;;;5039804;28;20415;-59
2024/04/06 10:29:20;;;;;;;2.97;1.80;;;;;;;;;;5035233;28;20108;-60
2024/04/06 10:31:45;;;;;;;4.15;1.63;;;;;;;;;;5030126;28;20176;-60
2024/04/06 10:34:11;;;;;;;4.05;1.55;;;;;;;;;;5039976;28;20411;-60
2024/04/06 10:36:37;;;;;;;3.78;1.45;;;;;;;;;;5037436;28;20499;-61
2024/04/06 10:39:05;;;;;;;3.03;1.52;;;;;;;;;;5021485;28;20040;-61
2024/04/06 10:41:34;;;;;;;3.40;1.45;;;;;;;;;;5037742;28;20481;-60
2024/04/06 10:44:00;;;;;;;3.25;1.30;;;;;;;;;;5017419;28;20092;-60
2024/04/06 10:46:26;;;;;;;3.17;1.20;;;;;;;;;;5041188;28;20122;-60
2024/04/06 10:48:51;;;;;;;2.38;1.33;;;;;;;;;;5024433;28;20117;-60
2024/04/06 10:51:17;;;;;;;3.90;1.52;;;;;;;;;;5037821;28;20033;-60
2024/04/06 10:53:43;;;;;;;2.05;1.10;;;;;;;;;;5037760;28;20029;-59
2024/04/06 10:56:09;;;;;;;2.50;1.35;;;;;;;;;;5031365;28;20467;-60
2024/04/06 10:58:34;;;;;;;3.33;1.20;;;;;;;;;;5012613;28;20511;-59
2024/04/06 11:01:06;;;;;;;2.88;1.30;;;;;;;;;;5028703;28;20037;-60
2024/04/06 11:03:31;;;;;;;2.65;1.00;;;;;;;;;;5030513;28;20469;-60
2024/04/06 11:05:57;;;;;;;2.38;1.20;;;;;;;;;;5022249;28;20029;-60
2024/04/06 11:08:22;;;;;;;1.58;0.98;;;;;;;;;;5042792;28;20083;-61
2024/04/06 11:10:47;;;;;;;2.17;1.00;;;;;;;;;;5034992;28;20041;-62
2024/04/06 11:13:13;;;;;;;3.05;0.93;;;;;;;;;;5031011;28;20057;-60
2024/04/06 11:15:39;;;;;;;2.70;1.00;;;;;;;;;;5021490;28;20045;-61
2024/04/06 11:18:04;;;;;;;2.22;1.17;;;;;;;;;;5022637;28;20041;-59
2024/04/06 11:20:30;;;;;;;2.33;1.00;;;;;;;;;;5016917;28;20431;-60
2024/04/06 11:22:56;;;;;;;3.15;1.13;;;;;;;;;;5025329;28;20044;-60
2024/04/06 11:25:21;;;;;;;3.78;1.10;;;;;;;;;;5041831;28;20033;-59
2024/04/06 11:27:47;;;;;;;2.83;1.38;;;;;;;;;;5034354;28;20040;-59
2024/04/06 11:30:13;;;;;;;2.17;1.00;;;;;;;;;;5034591;28;20129;-59
2024/04/06 11:32:39;;;;;;;2.30;1.05;;;;;;;;;;5042035;28;20037;-61
2024/04/06 11:35:05;;;;;;;2.58;1.08;;;;;;;;;;5042205;28;20029;-60
2024/04/06 11:37:30;;;;;;;2.08;1.02;;;;;;;;;;5018929;28;20764;-60
2024/04/06 11:39:56;;;;;;;1.92;1.17;;;;;;;;;;5039011;28;20557;-60
2024/04/06 11:42:21;;;;;;;1.40;0.80;;;;;;;;;;5039369;28;20089;-59
2024/04/06 11:44:46;;;;;;;1.50;0.70;;;;;;;;;;5035377;28;20029;-62
2024/04/06 11:47:12;;;;;;;1.85;0.93;;;;;;;;;;5027505;28;20054;-60
2024/04/06 11:49:37;;;;;;;2.10;0.73;;;;;;;;;;5030660;28;20455;-61
2024/04/06 11:52:03;;;;;;;2.15;0.80;;;;;;;;;;5036442;28;20029;-60
2024/04/06 11:54:28;;;;;;;2.28;1.00;;;;;;;;;;5032589;28;20544;-61
2024/04/06 11:56:53;;;;;;;1.63;0.70;;;;;;;;;;5030320;28;20128;-61
2024/04/06 11:59:19;;;;;;;1.58;0.80;;;;;;;;;;5029435;28;20491;-62
2024/04/06 12:01:44;;;;;;;2.17;0.80;;;;;;;;;;5036763;28;20151;-63
2024/04/06 12:04:09;;;;;;;2.17;0.70;;;;;;;;;;5038074;28;20116;-62
2024/04/06 12:06:35;;;;;;;1.90;0.70;;;;;;;;;;5034058;28;20072;-61
2024/04/06 12:09:00;;;;;;;1.42;0.68;;;;;;;;;;5046543;28;20043;-59
2024/04/06 12:11:26;;;;;;;2.47;0.70;;;;;;;;;;5037964;28;20120;-59
2024/04/06 12:13:52;;;;;;;2.33;0.88;;;;;;;;;;5035610;28;20423;-60
2024/04/06 12:16:17;;;;;;;2.88;0.90;;;;;;;;;;5033031;28;20128;-59
2024/04/06 12:18:42;;;;;;;4.22;0.85;;;;;;;;;;5027459;28;20091;-63
2024/04/06 12:21:07;;;;;;;1.48;0.60;;;;;;;;;;5023907;28;20115;-62
2024/04/06 12:23:33;;;;;;;2.70;0.75;;;;;;;;;;5035819;28;20095;-59
2024/04/06 12:25:58;;;;;;;1.85;0.70;;;;;;;;;;5030734;28;20033;-60
2024/04/06 12:28:23;;;;;;;1.63;0.88;;;;;;;;;;5015260;28;20033;-60
2024/04/06 12:30:49;;;;;;;1.88;0.82;;;;;;;;;;5029438;28;20033;-58
2024/04/06 12:33:14;;;;;;;2.80;0.70;;;;;;;;;;5031825;28;20665;-60
2024/04/06 12:35:42;;;;;;;2.30;0.90;;;;;;;;;;5042887;28;20045;-59
2024/04/06 12:38:08;;;;;;;1.42;0.60;;;;;;;;;;5036640;28;20033;-57
2024/04/06 12:40:33;;;;;;;1.92;0.57;;;;;;;;;;5033452;28;20033;-60
2024/04/06 12:42:58;;;;;;;1.73;0.70;;;;;;;;;;5033018;28;20095;-58
2024/04/06 12:45:24;;;;;;;1.35;0.70;;;;;;;;;;5026631;28;20483;-59
2024/04/06 12:47:49;;;;;;;1.70;0.52;;;;;;;;;;5036478;28;20029;-58
2024/04/06 12:50:15;;;;;;;1.38;0.55;;;;;;;;;;5034758;28;20034;-59
2024/04/06 12:52:40;;;;;;;1.80;0.70;;;;;;;;;;5040935;28;20041;-59
2024/04/06 12:55:05;;;;;;;1.67;0.70;;;;;;;;;;5036690;28;20033;-59
2024/04/06 12:57:39;;;;;;;2.97;0.80;;;;;;;;;;5035043;28;20037;-59
2024/04/06 13:00:06;;;;;;;1.65;0.70;;;;;;;;;;5027131;28;20037;-59
2024/04/06 13:02:35;;;;;;;1.08;0.57;;;;;;;;;;5039760;28;20112;-59
2024/04/06 13:05:00;;;;;;;2.40;0.70;;;;;;;;;;5036131;28;20057;-61
2024/04/06 13:07:26;;;;;;;1.25;0.40;;;;;;;;;;5033300;28;20056;-61
2024/04/06 13:09:54;;;;;;;2.08;0.70;;;;;;;;;;5046583;28;20079;-59
2024/04/06 13:12:23;;;;;;;1.05;0.60;;;;;;;;;;5043319;28;20043;-60
2024/04/06 13:14:48;;;;;;;1.42;0.65;;;;;;;;;;5029335;28;20037;-60
2024/04/06 13:17:13;;;;;;;2.38;0.60;;;;;;;;;;5031498;28;20037;-58
2024/04/06 13:19:39;;;;;;;1.02;0.52;;;;;;;;;;5038933;28;20067;-59
2024/04/06 13:22:05;;;;;;;2.75;0.77;;;;;;;;;;5034377;28;20128;-59
2024/04/06 13:24:30;;;;;;;3.30;0.50;;;;;;;;;;5028722;28;20527;-62
2024/04/06 13:26:57;;;;;;;3.92;0.82;;;;;;;;;;5032428;28;20512;-58
2024/04/06 13:29:22;;;;;;;3.50;0.60;;;;;;;;;;5013217;28;20030;-61
2024/04/06 13:31:48;;;;;;;2.33;0.57;;;;;;;;;;5030233;28;20523;-60
2024/04/06 13:34:13;;;;;;;2.03;0.55;;;;;;;;;;5028020;28;20483;-63
2024/04/06 13:36:38;;;;;;;1.98;0.65;;;;;;;;;;5035931;28;20042;-57
2024/04/06 13:39:06;;;;;;;1.95;0.55;;;;;;;;;;5015459;28;20030;-57
2024/04/06 13:41:31;;;;;;;2.13;0.75;;;;;;;;;;5037022;28;20388;-56
2024/04/06 13:43:57;;;;;;;2.22;0.68;;;;;;;;;;5038126;28;20048;-58
2024/04/06 13:46:22;;;;;;;4.20;0.60;;;;;;;;;;5032882;28;20037;-57
2024/04/06 13:48:48;;;;;;;1.58;0.47;;;;;;;;;;5035058;28;20035;-59
2024/04/06 13:51:13;;;;;;;2.15;0.35;;;;;;;;;;5034894;28;20029;-57
2024/04/06 13:53:38;;;;;;;2.47;0.50;;;;;;;;;;5034464;28;20641;-57
2024/04/06 13:56:04;;;;;;;1.13;0.60;;;;;;;;;;5042588;28;20124;-57
2024/04/06 13:58:29;;;;;;;2.10;0.60;;;;;;;;;;5036423;28;20037;-57
2024/04/06 14:00:55;;;;;;;3.78;0.60;;;;;;;;;;5030962;28;20025;-58
2024/04/06 14:03:20;;;;;;;1.20;0.60;;;;;;;;;;5039670;28;20025;-58
2024/04/06 14:05:45;;;;;;;2.13;0.60;;;;;;;;;;5037771;28;20122;-57
2024/04/06 14:08:11;;;;;;;1.55;0.50;;;;;;;;;;5019032;28;20067;-57
2024/04/06 14:10:38;;;;;;;1.33;0.60;;;;;;;;;;5017797;28;20453;-57
2024/04/06 14:13:03;;;;;;;1.75;0.50;;;;;;;;;;5033879;28;20056;-58
2024/04/06 14:15:28;;;;;;;1.63;0.50;;;;;;;;;;5041582;28;20073;-59
2024/04/06 14:17:54;;;;;;;1.75;0.50;;;;;;;;;;5037762;28;20029;-58
2024/04/06 14:20:19;;;;;;;1.73;0.50;;;;;;;;;;5037823;28;20553;-58
2024/04/06 14:22:45;;;;;;;1.73;0.50;;;;;;;;;;5044830;28;20076;-57
2024/04/06 14:25:10;;;;;;;2.15;0.80;;;;;;;;;;5038459;28;20034;-60
2024/04/06 14:27:36;;;;;;;3.88;0.70;;;;;;;;;;5038699;28;20037;-62
2024/04/06 14:30:22;;;;;;;3.70;0.60;;;;;;;;;;5032413;28;20029;-58
2024/04/06 14:32:48;;;;;;;2.25;0.70;;;;;;;;;;5022731;28;20041;-60